Time;durP1;ratioP1;P1;durP2;ratioP2;P2;SDS_P1;SDS_P2;PMS_P1;PMS_P2;Temp;Humidity;BMP_temperature;BMP_pressure;BME280_temperature;BME280_humidity;BME280_pressure;Samples;Min_cycle;Max_cycle;Signal;HPM_P1;HPM_P2
2022/11/21 00:00:09;;;;;;;2.03;1.50;;;;;;;2.66;100.00;95072.66;1027508;28;20057;-69
2022/11/21 00:00:40;;;;;;;1.65;1.25;;;;;;;2.60;100.00;95061.38;1030292;28;20018;-68
2022/11/21 00:01:29;;;;;;;1.52;1.20;;;;;;;2.66;100.00;95067.47;1027709;28;20445;-68
2022/11/21 00:01:59;;;;;;;1.40;1.30;;;;;;;2.66;100.00;95070.06;1026802;28;20278;-69
2022/11/21 00:02:30;;;;;;;1.50;1.20;;;;;;;2.66;100.00;95066.69;1026428;28;20529;-68
2022/11/21 00:03:00;;;;;;;1.40;1.25;;;;;;;2.67;100.00;95068.25;1034923;28;20030;-69
2022/11/21 00:03:31;;;;;;;2.17;1.60;;;;;;;2.66;100.00;95071.88;1039321;28;20036;-68
2022/11/21 00:04:01;;;;;;;1.85;1.65;;;;;;;2.66;100.00;95066.69;1042171;28;20552;-68
2022/11/21 00:04:32;;;;;;;2.25;1.70;;;;;;;2.59;100.00;95061.63;1039284;28;20709;-69
2022/11/21 00:05:02;;;;;;;1.48;1.25;;;;;;;2.67;100.00;95070.84;1035230;28;20135;-68
2022/11/21 00:05:33;;;;;;;1.90;1.30;;;;;;;2.73;100.00;95062.16;1034843;28;20184;-68
2022/11/21 00:06:03;;;;;;;1.10;1.00;;;;;;;2.75;100.00;95065.28;1022889;29;20037;-67
2022/11/21 00:06:34;;;;;;;2.33;1.08;;;;;;;2.75;100.00;95065.28;1023136;28;20015;-68
2022/11/21 00:07:04;;;;;;;1.67;1.38;;;;;;;2.76;100.00;95066.88;1023401;29;20031;-68
2022/11/21 00:07:35;;;;;;;3.25;1.13;;;;;;;2.77;100.00;95056.28;1023160;28;20020;-68
2022/11/21 00:08:05;;;;;;;1.85;1.05;;;;;;;2.77;100.00;95063.25;1031401;28;20023;-69
2022/11/21 00:08:36;;;;;;;1.40;1.25;;;;;;;2.77;100.00;95058.88;1031033;28;20113;-68
2022/11/21 00:09:06;;;;;;;1.58;1.15;;;;;;;2.78;100.00;95054.47;1037659;28;20028;-68
2022/11/21 00:09:37;;;;;;;1.52;1.20;;;;;;;2.77;100.00;95065.84;1031328;28;20055;-68
2022/11/21 00:10:07;;;;;;;1.80;0.90;;;;;;;2.78;100.00;95054.47;1031062;28;20029;-67
2022/11/21 00:10:38;;;;;;;1.42;1.02;;;;;;;2.78;100.00;95067.41;1030967;28;20037;-68
2022/11/21 00:11:09;;;;;;;0.90;0.88;;;;;;;2.79;100.00;95062.03;1031737;28;20058;-68
2022/11/21 00:11:39;;;;;;;1.10;1.00;;;;;;;2.80;100.00;95057.63;1039188;28;20418;-68
2022/11/21 00:12:09;;;;;;;1.50;1.38;;;;;;;2.79;100.00;95053.47;1039454;28;20032;-69
2022/11/21 00:12:40;;;;;;;2.25;1.05;;;;;;;2.76;100.00;95048.75;1038472;28;20028;-68
2022/11/21 00:13:17;;;;;;;1.20;0.98;;;;;;;2.79;100.00;95061.25;1039237;28;20080;-69
2022/11/21 00:13:48;;;;;;;1.52;1.10;;;;;;;2.79;100.00;95056.06;1035604;28;20091;-68
2022/11/21 00:14:18;;;;;;;1.35;1.10;;;;;;;2.77;100.00;95056.28;1038298;28;20757;-67
2022/11/21 00:14:49;;;;;;;1.30;0.88;;;;;;;2.78;100.00;95054.47;1040518;28;20022;-68
2022/11/21 00:15:19;;;;;;;1.42;1.10;;;;;;;2.62;100.00;95026.72;1043428;28;20055;-69
2022/11/21 00:15:50;;;;;;;1.13;1.00;;;;;;;2.80;100.00;95052.44;1040749;28;20048;-68
2022/11/21 00:16:20;;;;;;;1.52;0.90;;;;;;;2.82;100.00;95055.59;1031169;28;20041;-69
2022/11/21 00:16:51;;;;;;;1.13;1.00;;;;;;;2.81;100.00;95059.19;1026996;28;20493;-68
2022/11/21 00:17:21;;;;;;;2.33;0.82;;;;;;;2.80;100.00;95060.22;1027470;28;20023;-68
2022/11/21 00:17:52;;;;;;;1.42;1.00;;;;;;;2.79;100.00;95063.84;1035563;28;20022;-68
2022/11/21 00:18:22;;;;;;;1.67;1.58;;;;;;;2.77;100.00;95051.09;1034843;28;20030;-68
2022/11/21 00:18:53;;;;;;;4.03;0.88;;;;;;;2.77;100.00;95056.28;1030895;28;20022;-69
2022/11/21 00:19:23;;;;;;;0.93;0.80;;;;;;;2.70;100.00;95047.84;1030358;28;20022;-69
2022/11/21 00:19:53;;;;;;;2.47;1.40;;;;;;;2.79;100.00;95059.44;1026947;28;20031;-68
2022/11/21 00:20:24;;;;;;;3.33;0.80;;;;;;;2.77;100.00;95058.88;1027274;28;20030;-68
2022/11/21 00:20:54;;;;;;;1.80;0.70;;;;;;;2.75;100.00;95052.34;1028671;28;20029;-68
2022/11/21 00:21:25;;;;;;;1.70;1.15;;;;;;;2.77;100.00;95058.09;1035109;28;20029;-68
2022/11/21 00:21:55;;;;;;;1.38;0.98;;;;;;;2.71;100.00;95048.63;1039526;28;20029;-68
2022/11/21 00:22:26;;;;;;;0.80;0.80;;;;;;;2.77;100.00;95053.69;1030447;28;20030;-67
2022/11/21 00:22:56;;;;;;;1.92;1.05;;;;;;;2.78;100.00;95064.81;1035072;28;20412;-68
2022/11/21 00:23:28;;;;;;;0.82;0.70;;;;;;;2.78;100.00;95068.22;1035398;28;20013;-69
2022/11/21 00:23:58;;;;;;;1.20;1.00;;;;;;;2.80;100.00;95062.81;1031209;28;20030;-70
2022/11/21 00:24:28;;;;;;;4.25;1.20;;;;;;;2.79;100.00;95066.41;1035212;28;20268;-68
2022/11/21 00:24:59;;;;;;;1.27;0.95;;;;;;;2.79;100.00;95062.03;1031059;28;20101;-68
2022/11/21 00:25:29;;;;;;;1.75;0.93;;;;;;;2.79;100.00;95062.03;1031105;28;20027;-68
2022/11/21 00:26:03;;;;;;;0.95;0.85;;;;;;;2.81;100.00;95059.19;1032940;28;20027;-68
2022/11/21 00:26:34;;;;;;;1.42;1.00;;;;;;;2.80;100.00;95062.81;1034975;28;20516;-69
2022/11/21 00:27:04;;;;;;;1.70;0.90;;;;;;;2.68;100.00;95043.91;1031504;28;20277;-69
2022/11/21 00:27:35;;;;;;;1.33;0.93;;;;;;;2.57;100.00;95038.53;1031039;28;20029;-68
2022/11/21 00:28:05;;;;;;;3.78;1.00;;;;;;;2.79;100.00;95061.25;1031120;28;20026;-67
2022/11/21 00:28:36;;;;;;;1.35;0.82;;;;;;;2.78;100.00;95057.88;1031300;28;20471;-68
2022/11/21 00:29:07;;;;;;;0.75;0.75;;;;;;;2.79;100.00;95061.25;1031021;28;20030;-69
2022/11/21 00:29:37;;;;;;;1.38;0.60;;;;;;;2.80;100.00;95057.63;1030458;28;20046;-69
2022/11/21 00:30:09;;;;;;;0.70;0.70;;;;;;;2.77;100.00;95063.25;1039580;28;20150;-69
2022/11/21 00:30:39;;;;;;;1.55;1.02;;;;;;;2.78;100.00;95070.00;1031015;28;20022;-69
2022/11/21 00:31:20;;;;;;;2.72;0.70;;;;;;;2.76;100.00;95061.69;1031005;28;20265;-69
2022/11/21 00:31:51;;;;;;;1.08;0.88;;;;;;;2.78;100.00;95057.06;1031082;28;20152;-68
2022/11/21 00:32:21;;;;;;;1.15;1.05;;;;;;;2.78;100.00;95060.47;1033367;28;20821;-68
2022/11/21 00:32:52;;;;;;;0.88;0.73;;;;;;;2.76;100.00;95067.66;1033546;28;20574;-68
2022/11/21 00:33:22;;;;;;;1.45;0.77;;;;;;;2.79;100.00;95056.06;1033212;28;20429;-67
2022/11/21 00:33:53;;;;;;;0.70;0.63;;;;;;;2.79;100.00;95064.63;1039048;28;20022;-68
2022/11/21 00:34:23;;;;;;;2.25;0.80;;;;;;;2.84;100.00;95064.69;1035431;28;20018;-68
2022/11/21 00:34:53;;;;;;;0.85;0.70;;;;;;;2.84;100.00;95063.91;1039891;28;20030;-68
2022/11/21 00:35:24;;;;;;;0.68;0.68;;;;;;;2.85;100.00;95065.50;1039332;28;20025;-68
2022/11/21 00:35:54;;;;;;;2.88;0.90;;;;;;;2.78;100.00;95046.69;1034914;28;20030;-68
2022/11/21 00:36:25;;;;;;;1.67;0.70;;;;;;;2.90;100.00;95063.00;1031021;28;20030;-68
2022/11/21 00:36:55;;;;;;;0.90;0.60;;;;;;;2.89;100.00;95064.03;1027018;28;20081;-68
2022/11/21 00:37:26;;;;;;;1.40;0.90;;;;;;;2.83;100.00;95060.53;1026948;28;20556;-67
2022/11/21 00:37:56;;;;;;;2.80;0.88;;;;;;;2.89;100.00;95066.63;1027020;28;20093;-68
2022/11/21 00:38:27;;;;;;;0.90;0.60;;;;;;;2.88;100.00;95061.66;1033296;28;20084;-68
2022/11/21 00:38:57;;;;;;;0.98;0.80;;;;;;;2.88;100.00;95059.84;1030959;28;20033;-69
2022/11/21 00:39:27;;;;;;;1.38;0.70;;;;;;;2.89;100.00;95066.63;1035216;28;20041;-68
2022/11/21 00:39:58;;;;;;;1.05;0.70;;;;;;;2.90;100.00;95065.59;1038230;28;20029;-68
2022/11/21 00:40:28;;;;;;;2.05;0.65;;;;;;;2.88;100.00;95059.84;1031157;28;20030;-68
2022/11/21 00:40:59;;;;;;;2.00;0.75;;;;;;;2.89;100.00;95061.44;1031332;28;20093;-68
2022/11/21 00:41:29;;;;;;;1.00;0.80;;;;;;;2.89;100.00;95068.41;1030990;28;20030;-69
2022/11/21 00:42:00;;;;;;;1.35;0.80;;;;;;;2.88;100.00;95065.03;1034345;28;20037;-69
2022/11/21 00:42:30;;;;;;;4.57;0.80;;;;;;;2.91;100.00;95072.34;1038717;28;20028;-69
2022/11/21 00:43:01;;;;;;;0.77;0.68;;;;;;;2.91;100.00;95064.56;1039102;28;20135;-68
2022/11/21 00:43:31;;;;;;;5.65;0.75;;;;;;;2.94;100.00;95068.50;1039192;28;20029;-68
2022/11/21 00:44:02;;;;;;;1.42;0.80;;;;;;;2.94;100.00;95071.09;1039119;28;20123;-68
2022/11/21 00:44:32;;;;;;;0.75;0.70;;;;;;;2.87;100.00;95060.09;1039034;28;20067;-70
2022/11/21 00:45:03;;;;;;;1.42;0.73;;;;;;;2.91;100.00;95080.09;1035388;28;20046;-69
2022/11/21 00:45:34;;;;;;;1.02;0.70;;;;;;;2.93;100.00;95077.31;1034847;28;20037;-68
2022/11/21 00:46:04;;;;;;;0.63;0.60;;;;;;;2.93;100.00;95067.72;1034986;28;20018;-68
2022/11/21 00:46:34;;;;;;;0.93;0.73;;;;;;;2.92;100.00;95071.34;1031391;28;20066;-69
2022/11/21 00:47:05;;;;;;;0.85;0.77;;;;;;;2.94;100.00;95078.88;1034048;28;20078;-69
2022/11/21 00:47:35;;;;;;;3.50;0.73;;;;;;;2.93;100.00;95070.31;1035078;28;20022;-69
2022/11/21 00:48:06;;;;;;;1.35;0.57;;;;;;;2.92;100.00;95070.53;1035141;28;20179;-68
2022/11/21 00:48:36;;;;;;;0.70;0.45;;;;;;;2.94;100.00;95063.31;1030581;28;20018;-68
2022/11/21 00:49:07;;;;;;;0.93;0.60;;;;;;;2.94;100.00;95069.28;1031274;28;20065;-69
2022/11/21 00:49:37;;;;;;;1.15;0.70;;;;;;;2.94;100.00;95073.69;1022758;29;20030;-68
2022/11/21 00:50:08;;;;;;;0.80;0.65;;;;;;;2.92;100.00;95071.34;1023278;28;20023;-68
2022/11/21 00:50:39;;;;;;;1.10;0.63;;;;;;;2.90;100.00;95077.75;1035265;28;20002;-68
2022/11/21 00:51:09;;;;;;;0.70;0.70;;;;;;;2.89;100.00;95087.34;1035097;28;20268;-69
2022/11/21 00:51:39;;;;;;;0.60;0.60;;;;;;;2.88;100.00;95085.75;1038669;28;20026;-69
2022/11/21 00:52:10;;;;;;;0.73;0.65;;;;;;;2.89;100.00;95066.63;1039133;28;20538;-70
2022/11/21 00:52:40;;;;;;;2.28;0.80;;;;;;;2.88;100.00;95070.19;1038569;28;20565;-68
2022/11/21 00:53:11;;;;;;;1.65;1.55;;;;;;;2.89;100.00;95076.19;1039460;28;20014;-68
2022/11/21 00:53:41;;;;;;;1.00;0.77;;;;;;;2.87;100.00;95071.22;1036364;28;20014;-69
2022/11/21 00:54:12;;;;;;;0.90;0.77;;;;;;;2.84;100.00;95074.28;1034928;28;20049;-68
2022/11/21 00:54:42;;;;;;;2.03;0.70;;;;;;;2.86;100.00;95082.63;1035182;28;20022;-68
2022/11/21 00:55:13;;;;;;;0.63;0.50;;;;;;;2.84;100.00;95069.88;1034878;28;20104;-67
2022/11/21 00:55:43;;;;;;;0.90;0.85;;;;;;;2.84;100.00;95063.91;1034965;28;20534;-70
2022/11/21 00:56:14;;;;;;;0.73;0.70;;;;;;;2.85;100.00;95065.50;1039252;28;20375;-68
2022/11/21 00:56:44;;;;;;;1.00;0.73;;;;;;;2.84;100.00;95082.03;1035009;28;20021;-68
2022/11/21 00:57:14;;;;;;;1.08;0.63;;;;;;;2.84;100.00;95076.88;1035098;28;20455;-69
2022/11/21 00:57:45;;;;;;;3.00;0.80;;;;;;;2.84;100.00;95079.47;1035019;28;20036;-68
2022/11/21 00:58:15;;;;;;;1.45;0.65;;;;;;;2.80;100.00;95062.81;1034689;28;20147;-68
2022/11/21 00:58:46;;;;;;;1.65;1.10;;;;;;;2.83;100.00;95067.53;1039187;28;20053;-68
2022/11/21 00:59:16;;;;;;;1.23;0.60;;;;;;;2.82;100.00;95081.50;1038858;28;20491;-68
2022/11/21 00:59:47;;;;;;;6.45;0.85;;;;;;;2.83;100.00;95068.31;1039033;28;20139;-67
2022/11/21 01:00:17;;;;;;;0.57;0.50;;;;;;;2.80;100.00;95068.78;1038958;28;20044;-68
2022/11/21 01:00:48;;;;;;;1.17;0.80;;;;;;;2.80;100.00;95075.75;1039154;28;20029;-67
2022/11/21 01:01:18;;;;;;;3.30;0.63;;;;;;;2.81;100.00;95082.50;1035212;28;20392;-68
2022/11/21 01:01:49;;;;;;;0.60;0.60;;;;;;;2.80;100.00;95078.34;1029548;28;20073;-68
2022/11/21 01:02:19;;;;;;;2.10;0.90;;;;;;;2.77;100.00;95076.22;1029866;28;20027;-69
2022/11/21 01:02:49;;;;;;;0.65;0.65;;;;;;;2.77;100.00;95078.81;1030899;28;20034;-68
2022/11/21 01:03:20;;;;;;;0.90;0.77;;;;;;;2.72;100.00;95074.31;1034776;28;20506;-69
2022/11/21 01:03:50;;;;;;;0.80;0.80;;;;;;;2.69;100.00;95071.41;1035074;28;20108;-69
2022/11/21 01:04:21;;;;;;;0.80;0.50;;;;;;;2.68;100.00;95075.00;1040225;28;20060;-68
2022/11/21 01:04:51;;;;;;;0.90;0.60;;;;;;;2.64;100.00;95076.47;1043229;28;20025;-68
2022/11/21 01:05:22;;;;;;;1.05;0.95;;;;;;;2.65;100.00;95080.63;1039194;28;20021;-70
2022/11/21 01:05:52;;;;;;;0.50;0.50;;;;;;;2.64;100.00;95074.66;1038868;28;20021;-70
2022/11/21 01:06:22;;;;;;;0.65;0.60;;;;;;;2.62;100.00;95071.53;1038375;28;20048;-69
2022/11/21 01:06:53;;;;;;;1.00;0.88;;;;;;;2.65;100.00;95070.25;1043223;28;20016;-67
2022/11/21 01:07:23;;;;;;;0.93;0.60;;;;;;;2.65;100.00;95080.63;1040404;28;20079;-68
2022/11/21 01:07:54;;;;;;;0.70;0.70;;;;;;;2.65;100.00;95080.63;1042166;28;20024;-67
2022/11/21 01:08:24;;;;;;;1.20;0.80;;;;;;;2.65;100.00;95084.03;1043143;28;20025;-68
2022/11/21 01:08:55;;;;;;;1.05;0.95;;;;;;;2.61;100.00;95077.72;1037898;28;20487;-69
2022/11/21 01:09:27;;;;;;;1.45;1.08;;;;;;;2.59;100.00;95080.53;1040625;28;20471;-68
2022/11/21 01:09:57;;;;;;;0.80;0.70;;;;;;;2.62;100.00;95075.94;1038874;28;21026;-68
2022/11/21 01:10:28;;;;;;;0.90;0.75;;;;;;;2.65;100.00;95085.81;1042129;28;20330;-68
2022/11/21 01:11:02;;;;;;;0.98;0.70;;;;;;;2.66;100.00;95079.63;1041804;28;20025;-68
2022/11/21 01:11:32;;;;;;;1.00;0.82;;;;;;;2.66;100.00;95083.00;1043021;28;20859;-69
2022/11/21 01:12:03;;;;;;;0.90;0.80;;;;;;;2.65;100.00;95072.84;1043190;28;20359;-67
2022/11/21 01:12:33;;;;;;;0.90;0.82;;;;;;;2.69;100.00;95076.59;1038096;28;20036;-67
2022/11/21 01:13:04;;;;;;;1.42;0.80;;;;;;;2.66;100.00;95070.06;1039103;28;20037;-69
2022/11/21 01:13:34;;;;;;;1.33;0.82;;;;;;;2.60;100.00;95063.97;1043317;28;20025;-68
2022/11/21 01:14:05;;;;;;;1.67;1.00;;;;;;;2.63;100.00;95072.31;1030725;28;20029;-68
2022/11/21 01:14:35;;;;;;;0.75;0.68;;;;;;;2.65;100.00;95070.25;1026570;28;20037;-68
2022/11/21 01:15:07;;;;;;;0.95;0.80;;;;;;;2.64;100.00;95079.06;1023234;29;20027;-68
2022/11/21 01:15:37;;;;;;;1.15;1.00;;;;;;;2.60;100.00;95073.56;1030830;28;20129;-68
2022/11/21 01:16:12;;;;;;;1.25;0.80;;;;;;;2.54;100.00;95069.28;1035090;28;20265;-70
2022/11/21 01:16:43;;;;;;;4.70;1.02;;;;;;;2.60;100.00;95076.16;1031816;28;20030;-69
2022/11/21 01:17:13;;;;;;;2.67;0.75;;;;;;;2.57;100.00;95074.00;1035533;28;20273;-68
2022/11/21 01:17:44;;;;;;;1.08;0.90;;;;;;;2.58;100.00;95080.75;1042809;28;20071;-69
2022/11/21 01:18:14;;;;;;;0.80;0.60;;;;;;;2.63;100.00;95073.09;1042975;28;20017;-68
2022/11/21 01:18:45;;;;;;;1.55;1.45;;;;;;;2.66;100.00;95080.41;1043315;28;20032;-69
2022/11/21 01:19:15;;;;;;;0.73;0.70;;;;;;;2.66;100.00;95069.28;1034875;28;20060;-68
2022/11/21 01:19:45;;;;;;;3.40;0.68;;;;;;;2.70;100.00;95070.38;1030659;28;20018;-68
2022/11/21 01:20:16;;;;;;;0.60;0.50;;;;;;;2.68;100.00;95072.41;1030728;28;20034;-69
2022/11/21 01:20:46;;;;;;;0.50;0.50;;;;;;;2.68;100.00;95067.22;1031099;28;20101;-68
2022/11/21 01:21:28;;;;;;;1.20;0.88;;;;;;;2.68;100.00;95069.81;1040951;28;20013;-69
2022/11/21 01:21:58;;;;;;;1.65;0.85;;;;;;;2.68;100.00;95072.41;1039183;28;20013;-67
2022/11/21 01:22:28;;;;;;;0.75;0.70;;;;;;;2.67;100.00;95063.84;1039423;28;20302;-68
2022/11/21 01:22:59;;;;;;;1.63;0.70;;;;;;;2.69;100.00;95063.63;1037932;28;20022;-68
2022/11/21 01:23:29;;;;;;;0.57;0.57;;;;;;;2.67;100.00;95063.06;1038831;28;20522;-68
2022/11/21 01:24:00;;;;;;;0.80;0.68;;;;;;;2.69;100.00;95061.81;1035302;28;20017;-69
2022/11/21 01:24:31;;;;;;;2.38;0.75;;;;;;;2.70;100.00;95060.03;1031472;28;20018;-68
2022/11/21 01:25:01;;;;;;;0.85;0.60;;;;;;;2.71;100.00;95064.19;1030701;28;20025;-68
2022/11/21 01:25:33;;;;;;;1.20;0.93;;;;;;;2.70;100.00;95062.59;1031392;28;20056;-68
2022/11/21 01:26:04;;;;;;;1.02;0.70;;;;;;;2.69;100.00;95066.22;1039373;28;20029;-68
2022/11/21 01:26:36;;;;;;;0.80;0.70;;;;;;;2.69;100.00;95061.03;1038809;28;20257;-67
2022/11/21 01:27:07;;;;;;;0.75;0.70;;;;;;;2.65;100.00;95052.13;1035216;28;20320;-68
2022/11/21 01:27:37;;;;;;;0.80;0.80;;;;;;;2.74;100.00;95063.72;1027877;28;20906;-69
2022/11/21 01:28:08;;;;;;;2.55;0.60;;;;;;;2.73;100.00;95062.94;1027591;28;20019;-68
2022/11/21 01:28:38;;;;;;;1.15;0.70;;;;;;;2.73;100.00;95067.34;1031705;28;20022;-69
2022/11/21 01:29:09;;;;;;;0.98;0.65;;;;;;;2.76;100.00;95054.72;1031238;28;20018;-68
2022/11/21 01:29:39;;;;;;;0.73;0.70;;;;;;;2.77;100.00;95047.72;1038805;28;20025;-69
2022/11/21 01:30:10;;;;;;;0.80;0.80;;;;;;;2.77;100.00;95052.91;1039717;28;20021;-68
2022/11/21 01:30:41;;;;;;;0.75;0.70;;;;;;;2.77;100.00;95060.69;1035442;28;20018;-68
2022/11/21 01:31:19;;;;;;;2.78;0.60;;;;;;;2.82;100.00;95053.00;1039311;28;20256;-68
2022/11/21 01:31:49;;;;;;;0.57;0.52;;;;;;;2.84;100.00;95043.19;1036527;28;20383;-68
2022/11/21 01:32:19;;;;;;;0.85;0.60;;;;;;;2.86;100.00;95051.53;1030691;28;20253;-68
2022/11/21 01:32:50;;;;;;;1.63;1.13;;;;;;;2.81;100.00;95047.03;1033353;28;20432;-69
2022/11/21 01:33:20;;;;;;;1.42;0.68;;;;;;;2.81;100.00;95049.59;1035086;28;20021;-68
2022/11/21 01:33:51;;;;;;;1.50;0.88;;;;;;;2.81;100.00;95046.25;1039518;28;20427;-69
2022/11/21 01:34:21;;;;;;;1.77;0.80;;;;;;;2.80;100.00;95055.03;1039781;28;20005;-69
2022/11/21 01:34:52;;;;;;;0.65;0.50;;;;;;;2.80;100.00;95052.44;1038600;28;20095;-68
2022/11/21 01:35:24;;;;;;;2.35;0.65;;;;;;;2.74;100.00;95037.81;1031675;28;20018;-68
2022/11/21 01:35:55;;;;;;;1.27;0.70;;;;;;;2.80;100.00;95050.63;1027384;28;20389;-67
2022/11/21 01:36:29;;;;;;;0.45;0.45;;;;;;;2.77;100.00;95045.91;1023463;28;20254;-68
2022/11/21 01:37:00;;;;;;;2.15;0.90;;;;;;;2.79;100.00;95050.88;1019416;29;20496;-68
2022/11/21 01:37:30;;;;;;;0.90;0.75;;;;;;;2.83;100.00;95052.78;1023077;28;20263;-69
2022/11/21 01:38:01;;;;;;;0.70;0.70;;;;;;;2.80;100.00;95048.03;1023794;28;20429;-68
2022/11/21 01:38:32;;;;;;;1.15;0.90;;;;;;;2.79;100.00;95045.69;1023341;28;20110;-68
2022/11/21 01:39:04;;;;;;;1.27;0.82;;;;;;;2.80;100.00;95042.09;1027546;28;20027;-68
2022/11/21 01:39:34;;;;;;;3.88;0.82;;;;;;;2.72;100.00;95029.50;1027199;28;20278;-70
2022/11/21 01:40:05;;;;;;;2.03;0.80;;;;;;;2.80;100.00;95044.66;1025022;28;20342;-69
2022/11/21 01:40:38;;;;;;;1.13;0.88;;;;;;;2.79;100.00;95045.69;1027123;28;20022;-68
2022/11/21 01:41:10;;;;;;;1.17;0.80;;;;;;;2.76;100.00;95039.16;1028331;28;20023;-68
2022/11/21 01:41:41;;;;;;;1.05;0.80;;;;;;;2.74;100.00;95032.63;1027435;28;20262;-69
2022/11/21 01:42:12;;;;;;;0.80;0.60;;;;;;;2.78;100.00;95044.91;1031697;28;20277;-68
2022/11/21 01:42:45;;;;;;;0.70;0.65;;;;;;;2.79;100.00;95045.69;1035503;28;20734;-70
2022/11/21 01:43:16;;;;;;;1.55;0.65;;;;;;;2.81;100.00;95033.28;1040057;28;20056;-68
2022/11/21 01:43:46;;;;;;;1.02;0.85;;;;;;;2.81;100.00;95038.47;1039282;28;20275;-68
2022/11/21 01:44:22;;;;;;;0.60;0.60;;;;;;;2.77;100.00;95032.97;1039218;28;20025;-68
2022/11/21 01:44:53;;;;;;;0.95;0.73;;;;;;;2.84;100.00;95043.19;1035213;28;20025;-70
2022/11/21 01:45:55;;;;;;;5.00;0.90;;;;;;;2.88;100.00;95046.09;1036036;28;20312;-69
2022/11/21 01:46:26;;;;;;;1.42;0.85;;;;;;;2.86;100.00;95041.16;1036509;28;20257;-68
2022/11/21 01:46:56;;;;;;;3.05;0.60;;;;;;;2.88;100.00;95044.28;1037073;28;20260;-68
2022/11/21 01:47:27;;;;;;;0.95;0.70;;;;;;;2.89;100.00;95045.09;1035311;28;20026;-68
2022/11/21 01:47:57;;;;;;;1.50;0.70;;;;;;;2.84;100.00;95031.00;1035324;28;20026;-68
2022/11/21 01:48:51;;;;;;;0.80;0.80;;;;;;;2.92;100.00;95035.06;1035692;28;20018;-68
2022/11/21 01:49:29;;;;;;;1.48;0.93;;;;;;;2.93;100.00;95035.84;1039217;28;20024;-69
2022/11/21 01:49:59;;;;;;;0.95;0.80;;;;;;;2.86;100.00;95030.81;1031036;28;20286;-69
2022/11/21 01:50:30;;;;;;;1.42;0.90;;;;;;;2.87;100.00;95021.22;1026500;28;20284;-67
2022/11/21 01:51:04;;;;;;;1.30;0.70;;;;;;;2.86;100.00;95025.63;1023136;29;20070;-68
2022/11/21 01:51:49;;;;;;;0.75;0.68;;;;;;;2.95;100.00;95031.19;1031063;28;20018;-68
2022/11/21 01:52:27;;;;;;;0.68;0.65;;;;;;;2.94;100.00;95030.41;1030285;28;20258;-69
2022/11/21 01:52:58;;;;;;;2.28;0.88;;;;;;;2.90;100.00;95024.13;1031088;28;20790;-69
2022/11/21 01:53:28;;;;;;;1.83;0.80;;;;;;;2.88;100.00;95025.38;1026691;28;20270;-68
2022/11/21 01:54:10;;;;;;;0.80;0.60;;;;;;;2.90;100.00;95031.13;1024023;28;20031;-69
2022/11/21 01:55:05;;;;;;;1.13;0.65;;;;;;;2.89;100.00;95019.97;1023451;29;20087;-68
2022/11/21 01:55:35;;;;;;;2.83;1.02;;;;;;;2.88;100.00;95008.03;1036358;28;20263;-68
2022/11/21 01:56:05;;;;;;;0.63;0.63;;;;;;;2.86;100.00;95004.91;1027261;28;20768;-68
2022/11/21 01:56:42;;;;;;;0.73;0.70;;;;;;;2.91;100.00;95020.50;1026175;28;20035;-67
2022/11/21 01:57:30;;;;;;;0.65;0.65;;;;;;;2.89;100.00;95012.19;1025743;28;20026;-69
2022/11/21 01:58:01;;;;;;;0.60;0.60;;;;;;;2.86;100.00;95012.66;1023074;29;20600;-69
2022/11/21 01:58:31;;;;;;;1.00;0.60;;;;;;;2.90;100.00;95013.78;1030902;28;20269;-68
2022/11/21 01:59:02;;;;;;;0.85;0.75;;;;;;;2.93;100.00;95020.31;1031086;28;20559;-68
2022/11/21 01:59:42;;;;;;;0.73;0.65;;;;;;;2.91;100.00;95012.75;1026938;28;20038;-69
2022/11/21 02:00:21;;;;;;;1.08;0.57;;;;;;;2.93;100.00;95010.72;1031205;28;20554;-69
2022/11/21 02:00:52;;;;;;;1.23;1.02;;;;;;;2.87;100.00;95010.84;1027115;28;20270;-68
2022/11/21 02:01:22;;;;;;;1.30;0.65;;;;;;;2.92;100.00;95009.16;1028291;28;20278;-68
2022/11/21 02:01:52;;;;;;;1.48;0.75;;;;;;;2.98;100.00;95015.97;1028259;28;20035;-68
2022/11/21 02:02:24;;;;;;;0.73;0.60;;;;;;;2.97;100.00;95006.63;1033621;28;20021;-68
2022/11/21 02:02:56;;;;;;;0.70;0.70;;;;;;;2.96;100.00;95005.06;1031414;28;20018;-68
2022/11/21 02:03:28;;;;;;;1.27;0.60;;;;;;;2.97;100.00;95006.63;1034802;28;20252;-67
2022/11/21 02:03:58;;;;;;;4.13;0.90;;;;;;;2.93;100.00;95002.94;1033053;28;20385;-68
2022/11/21 02:04:30;;;;;;;2.38;0.80;;;;;;;2.95;100.00;95003.50;1031414;28;20316;-68
2022/11/21 02:05:00;;;;;;;1.75;0.73;;;;;;;2.97;100.00;95000.66;1027319;28;20564;-67
2022/11/21 02:05:31;;;;;;;2.15;0.70;;;;;;;2.78;100.00;94985.34;1028242;28;20350;-69
2022/11/21 02:06:02;;;;;;;0.50;0.50;;;;;;;2.97;100.00;95004.03;1027296;28;20070;-68
2022/11/21 02:06:32;;;;;;;1.02;0.60;;;;;;;2.93;100.00;94994.38;1027132;28;20286;-67
2022/11/21 02:07:04;;;;;;;0.73;0.70;;;;;;;2.95;100.00;95003.50;1023447;28;20536;-68
2022/11/21 02:07:36;;;;;;;2.05;0.82;;;;;;;2.92;100.00;94993.59;1031090;28;20037;-68
2022/11/21 02:08:13;;;;;;;1.00;0.50;;;;;;;2.97;100.00;95003.25;1027429;28;20887;-68
2022/11/21 02:08:44;;;;;;;0.57;0.47;;;;;;;2.98;100.00;94997.84;1032283;28;20754;-68
2022/11/21 02:09:14;;;;;;;0.52;0.52;;;;;;;2.96;100.00;94992.13;1034567;28;20284;-68
2022/11/21 02:09:46;;;;;;;0.90;0.90;;;;;;;2.96;100.00;94999.88;1035287;28;20051;-67
2022/11/21 02:10:17;;;;;;;0.85;0.70;;;;;;;2.97;100.00;95000.66;1035126;28;20069;-67
2022/11/21 02:10:59;;;;;;;0.90;0.60;;;;;;;2.98;100.00;94995.25;1027126;28;20292;-69
2022/11/21 02:11:34;;;;;;;2.15;0.63;;;;;;;2.98;100.00;94997.84;1030690;28;20057;-68
2022/11/21 02:12:07;;;;;;;1.92;0.90;;;;;;;2.91;100.00;94981.66;1031111;28;20312;-68
2022/11/21 02:12:44;;;;;;;2.33;0.70;;;;;;;2.93;100.00;94984.03;1034311;28;20264;-68
2022/11/21 02:13:15;;;;;;;1.92;0.63;;;;;;;2.95;100.00;94998.31;1034897;28;20327;-68
2022/11/21 02:13:45;;;;;;;1.08;0.90;;;;;;;2.99;100.00;94994.25;1027191;28;20270;-68
2022/11/21 02:14:15;;;;;;;1.38;0.80;;;;;;;2.98;100.00;95000.44;1025800;28;20599;-68
2022/11/21 02:14:46;;;;;;;2.78;0.70;;;;;;;2.98;100.00;94995.25;1023140;28;20023;-68
2022/11/21 02:15:17;;;;;;;2.85;0.90;;;;;;;2.98;100.00;94992.66;1027289;28;20023;-67
2022/11/21 02:15:47;;;;;;;1.00;0.60;;;;;;;3.01;100.00;94992.19;1027314;28;20061;-68
2022/11/21 02:16:18;;;;;;;1.30;0.80;;;;;;;2.98;100.00;94987.47;1027171;28;20281;-68
2022/11/21 02:16:48;;;;;;;0.90;0.77;;;;;;;2.98;100.00;94997.84;1030988;28;20464;-68
2022/11/21 02:17:19;;;;;;;2.15;0.70;;;;;;;2.99;100.00;94994.25;1022672;28;20413;-68
2022/11/21 02:17:49;;;;;;;0.82;0.50;;;;;;;2.99;100.00;94988.28;1034979;28;20018;-68
2022/11/21 02:18:20;;;;;;;1.80;0.70;;;;;;;2.97;100.00;94995.50;1038793;28;20036;-68
2022/11/21 02:18:50;;;;;;;1.30;0.70;;;;;;;2.95;100.00;95002.69;1039194;28;20036;-68
2022/11/21 02:19:27;;;;;;;4.18;0.73;;;;;;;2.90;100.00;94993.03;1040223;28;20506;-69
2022/11/21 02:20:06;;;;;;;1.75;0.82;;;;;;;2.90;100.00;94998.22;1035283;28;20030;-68
2022/11/21 02:20:36;;;;;;;1.25;0.50;;;;;;;2.88;100.00;94992.47;1031149;28;20265;-68
2022/11/21 02:21:15;;;;;;;1.83;0.77;;;;;;;2.90;100.00;95000.81;1024988;28;20255;-68
2022/11/21 02:21:54;;;;;;;1.13;0.75;;;;;;;2.84;100.00;95001.75;1029366;28;20030;-67
2022/11/21 02:22:43;;;;;;;2.38;1.05;;;;;;;2.82;100.00;94998.59;1031605;28;20272;-68
2022/11/21 02:23:34;;;;;;;2.80;0.70;;;;;;;2.84;100.00;94996.56;1035185;28;20800;-67
2022/11/21 02:24:05;;;;;;;1.60;0.75;;;;;;;2.80;100.00;94988.47;1028168;28;20284;-67
2022/11/21 02:24:35;;;;;;;3.72;0.82;;;;;;;2.81;100.00;94989.25;1030700;28;20356;-68
2022/11/21 02:25:14;;;;;;;3.58;1.02;;;;;;;2.82;100.00;94988.25;1036558;28;20383;-68
2022/11/21 02:25:44;;;;;;;1.75;0.85;;;;;;;2.81;100.00;94982.25;1031958;28;20022;-68
2022/11/21 02:26:14;;;;;;;0.70;0.60;;;;;;;2.88;100.00;94989.09;1033730;28;20763;-68
2022/11/21 02:26:46;;;;;;;0.98;0.80;;;;;;;2.91;100.00;94981.66;1027294;28;20441;-65
2022/11/21 02:27:16;;;;;;;1.90;1.15;;;;;;;2.91;100.00;94981.66;1025211;28;20022;-68
2022/11/21 02:27:48;;;;;;;1.90;0.60;;;;;;;2.87;100.00;94983.13;1025846;28;20803;-69
2022/11/21 02:28:20;;;;;;;2.10;1.00;;;;;;;2.88;100.00;94966.56;1021996;29;20026;-69
2022/11/21 02:28:50;;;;;;;1.88;0.80;;;;;;;2.85;100.00;94977.41;1022468;29;20262;-67
2022/11/21 02:29:21;;;;;;;1.95;0.80;;;;;;;2.82;100.00;94977.88;1019657;28;20267;-69
2022/11/21 02:29:51;;;;;;;1.48;0.85;;;;;;;2.82;100.00;94977.88;1022726;28;20106;-67